createdAt,value
2018-03-23T00:00:16.750Z,0.00
2018-03-23T00:01:16.812Z,0.00
2018-03-23T00:02:16.827Z,0.00
2018-03-23T00:03:16.870Z,0.00
2018-03-23T00:04:16.910Z,0.00
2018-03-23T00:05:16.963Z,0.00
2018-03-23T00:06:17.024Z,0.00
2018-03-23T00:07:17.033Z,0.00
2018-03-23T00:08:17.075Z,0.00
2018-03-23T00:09:17.117Z,0.00
2018-03-23T00:10:17.158Z,0.00
2018-03-23T00:11:17.222Z,0.00
2018-03-23T00:12:17.241Z,0.00
2018-03-23T00:13:17.286Z,0.00
2018-03-23T00:14:17.359Z,0.00
2018-03-23T00:15:17.370Z,0.00
2018-03-23T00:16:17.436Z,0.00
2018-03-23T00:17:17.445Z,0.00
2018-03-23T00:18:17.488Z,0.00
2018-03-23T00:19:17.528Z,0.00
2018-03-23T00:20:17.570Z,0.00
2018-03-23T00:21:17.647Z,0.00
2018-03-23T00:22:17.650Z,0.00
2018-03-23T00:23:17.691Z,0.00
2018-03-23T00:24:17.732Z,0.00
2018-03-23T00:25:17.774Z,0.00
2018-03-23T00:26:17.838Z,0.00
2018-03-23T00:27:17.862Z,0.00
2018-03-23T00:28:17.922Z,0.00
2018-03-23T00:29:17.944Z,0.00
2018-03-23T00:30:17.982Z,0.00
2018-03-23T00:31:18.020Z,0.00
2018-03-23T00:32:18.085Z,0.00
2018-03-23T00:33:18.139Z,0.00
2018-03-23T00:34:18.149Z,0.00
2018-03-23T00:35:18.184Z,0.00
2018-03-23T00:36:18.225Z,0.00
2018-03-23T00:37:18.267Z,0.00
2018-03-23T00:38:18.340Z,0.00
2018-03-23T00:39:18.348Z,0.00
2018-03-23T00:40:18.389Z,0.00
2018-03-23T00:41:18.432Z,0.00
2018-03-23T00:42:18.471Z,0.00
2018-03-23T00:43:18.547Z,0.00
2018-03-23T00:44:18.558Z,0.00
2018-03-23T00:45:18.598Z,0.00
2018-03-23T00:46:18.639Z,0.00
2018-03-23T00:47:18.682Z,0.00
2018-03-23T00:48:18.749Z,0.00
2018-03-23T00:49:18.758Z,0.00
2018-03-23T00:50:18.801Z,0.00
2018-03-23T00:51:18.840Z,0.00
2018-03-23T00:52:18.884Z,0.00
2018-03-23T00:53:18.965Z,0.00
2018-03-23T00:54:18.966Z,0.00
2018-03-23T00:55:19.008Z,0.00
2018-03-23T00:56:19.049Z,0.00
2018-03-23T00:57:19.088Z,0.00
2018-03-23T00:58:19.155Z,0.00
2018-03-23T00:59:19.173Z,0.00
2018-03-23T01:00:19.211Z,0.00
2018-03-23T01:01:19.277Z,0.00
2018-03-23T01:02:19.295Z,0.00
2018-03-23T01:03:19.335Z,0.00
2018-03-23T01:04:19.411Z,0.00
2018-03-23T01:05:19.423Z,0.00
2018-03-23T01:06:19.459Z,0.00
2018-03-23T01:07:19.500Z,0.00
2018-03-23T01:08:19.542Z,0.00
2018-03-23T01:09:19.606Z,0.00
2018-03-23T01:10:19.627Z,0.00
2018-03-23T01:11:19.690Z,0.00
2018-03-23T01:12:19.707Z,0.00
2018-03-23T01:13:19.749Z,0.00
2018-03-23T01:14:19.797Z,0.00
2018-03-23T01:15:19.866Z,0.00
2018-03-23T01:16:19.874Z,0.00
2018-03-23T01:17:19.913Z,0.00
2018-03-23T01:18:19.955Z,0.00
2018-03-23T01:19:19.998Z,0.00
2018-03-23T01:20:20.060Z,0.00
2018-03-23T01:21:20.079Z,0.00
2018-03-23T01:22:20.120Z,0.00
2018-03-23T01:23:20.188Z,0.00
2018-03-23T01:24:20.203Z,0.00
2018-03-23T01:25:20.244Z,0.00
2018-03-23T01:26:20.305Z,0.00
2018-03-23T01:27:20.325Z,0.00
2018-03-23T01:28:20.366Z,0.00
2018-03-23T01:29:20.408Z,0.00
2018-03-23T01:30:20.449Z,0.00
2018-03-23T01:31:20.511Z,0.00
2018-03-23T01:32:20.532Z,0.00
2018-03-23T01:33:20.572Z,0.00
2018-03-23T01:34:20.614Z,0.00
2018-03-23T01:35:20.685Z,0.00
2018-03-23T01:36:20.695Z,0.00
2018-03-23T01:37:20.737Z,0.00
2018-03-23T01:38:20.777Z,0.00
2018-03-23T01:39:20.820Z,0.00
2018-03-23T01:40:20.881Z,0.00
2018-03-23T01:41:20.901Z,0.00
2018-03-23T01:42:20.961Z,0.00
2018-03-23T01:43:20.985Z,0.00
2018-03-23T01:44:21.024Z,0.00
2018-03-23T01:45:21.065Z,0.00
2018-03-23T01:46:21.126Z,0.00
2018-03-23T01:47:21.171Z,0.00
2018-03-23T01:48:21.189Z,0.00
2018-03-23T01:49:21.229Z,0.00
2018-03-23T01:50:21.270Z,0.00
2018-03-23T01:51:21.311Z,0.00
2018-03-23T01:52:21.375Z,0.00
2018-03-23T01:53:21.424Z,0.00
2018-03-23T01:54:21.438Z,0.00
2018-03-23T01:55:21.479Z,0.00
2018-03-23T01:56:21.520Z,0.00
2018-03-23T01:57:21.559Z,0.00
2018-03-23T01:58:21.621Z,0.00
2018-03-23T01:59:21.642Z,0.00
2018-03-23T02:00:21.687Z,0.00
2018-03-23T02:01:21.725Z,0.00
2018-03-23T02:02:21.765Z,0.00
2018-03-23T02:03:21.836Z,0.00
2018-03-23T02:04:21.871Z,0.00
2018-03-23T02:05:21.888Z,0.00
2018-03-23T02:06:21.937Z,0.00
2018-03-23T02:07:21.973Z,0.00
2018-03-23T02:08:22.015Z,0.00
2018-03-23T02:09:22.084Z,0.00
2018-03-23T02:10:22.100Z,0.00
2018-03-23T02:11:22.138Z,0.00
2018-03-23T02:12:22.180Z,0.00
2018-03-23T02:13:22.221Z,0.00
2018-03-23T02:14:22.298Z,0.00
2018-03-23T02:15:22.335Z,0.00
2018-03-23T02:16:22.344Z,0.00
2018-03-23T02:17:22.396Z,0.00
2018-03-23T02:18:22.425Z,0.00
2018-03-23T02:19:22.469Z,0.00
2018-03-23T02:20:22.547Z,0.00
2018-03-23T02:21:22.553Z,0.00
2018-03-23T02:22:22.592Z,0.00
2018-03-23T02:23:22.632Z,0.00
2018-03-23T02:24:22.677Z,0.00
2018-03-23T02:25:22.739Z,0.00
2018-03-23T02:26:22.776Z,0.00
2018-03-23T02:27:22.798Z,0.00
2018-03-23T02:28:22.841Z,0.00
2018-03-23T02:29:22.881Z,0.00
2018-03-23T02:30:22.926Z,0.00
2018-03-23T02:31:22.995Z,0.00
2018-03-23T02:32:23.006Z,0.00
2018-03-23T02:33:23.048Z,0.00
2018-03-23T02:34:23.090Z,0.00
2018-03-23T02:35:23.131Z,0.00
2018-03-23T02:36:23.213Z,0.00
2018-03-23T02:37:23.215Z,0.00
2018-03-23T02:38:23.255Z,0.00
2018-03-23T02:39:23.300Z,0.00
2018-03-23T02:40:23.338Z,0.00
2018-03-23T02:41:23.416Z,0.00
2018-03-23T02:42:23.418Z,0.00
2018-03-23T02:43:23.472Z,0.00
2018-03-23T02:44:23.505Z,0.00
2018-03-23T02:45:23.543Z,0.00
2018-03-23T02:46:23.614Z,0.00
2018-03-23T02:47:23.628Z,0.00
2018-03-23T02:48:23.668Z,0.00
2018-03-23T02:49:23.712Z,0.00
2018-03-23T02:50:23.765Z,0.00
2018-03-23T02:51:23.833Z,0.00
2018-03-23T02:52:23.836Z,0.00
2018-03-23T02:53:23.876Z,0.00
2018-03-23T02:54:23.916Z,0.00
2018-03-23T02:55:23.958Z,0.00
2018-03-23T02:56:24.023Z,0.00
2018-03-23T02:57:24.042Z,0.00
2018-03-23T02:58:24.080Z,0.00
2018-03-23T02:59:24.162Z,0.00
2018-03-23T03:00:24.165Z,0.00
2018-03-23T03:01:24.211Z,0.00
2018-03-23T03:02:24.248Z,0.00
2018-03-23T03:03:24.290Z,0.00
2018-03-23T03:04:24.355Z,0.00
2018-03-23T03:05:24.375Z,0.00
2018-03-23T03:06:24.417Z,0.00
2018-03-23T03:07:24.479Z,0.00
2018-03-23T03:08:24.503Z,0.00
2018-03-23T03:09:24.542Z,0.00
2018-03-23T03:10:24.582Z,0.00
2018-03-23T03:11:24.646Z,0.00
2018-03-23T03:12:24.666Z,0.00
2018-03-23T03:13:24.782Z,0.00
2018-03-23T03:14:24.748Z,0.00
2018-03-23T03:15:24.790Z,0.00
2018-03-23T03:16:24.835Z,0.00
2018-03-23T03:17:24.876Z,0.00
2018-03-23T03:18:24.936Z,0.00
2018-03-23T03:19:24.959Z,0.00
2018-03-23T03:20:24.997Z,0.00
2018-03-23T03:21:25.043Z,0.00
2018-03-23T03:22:25.083Z,0.00
2018-03-23T03:23:25.150Z,0.00
2018-03-23T03:24:25.193Z,0.00
2018-03-23T03:25:25.208Z,0.00
2018-03-23T03:26:25.245Z,0.00
2018-03-23T03:27:25.290Z,0.00
2018-03-23T03:28:25.332Z,0.00
2018-03-23T03:29:25.400Z,0.00
2018-03-23T03:30:25.416Z,0.00
2018-03-23T03:31:25.457Z,0.00
2018-03-23T03:32:25.495Z,0.00
2018-03-23T03:33:25.536Z,0.00
2018-03-23T03:34:25.601Z,0.00
2018-03-23T03:35:25.621Z,0.00
2018-03-23T03:36:25.699Z,0.00
2018-03-23T03:37:25.704Z,0.00
2018-03-23T03:38:25.745Z,0.00
2018-03-23T03:39:25.812Z,0.00
2018-03-23T03:40:25.854Z,0.00
2018-03-23T03:41:25.871Z,0.00
2018-03-23T03:42:25.911Z,0.00
2018-03-23T03:43:25.952Z,0.00
2018-03-23T03:44:25.994Z,0.00
2018-03-23T03:45:26.058Z,0.00
2018-03-23T03:46:26.075Z,0.00
2018-03-23T03:47:26.116Z,0.00
2018-03-23T03:48:26.159Z,0.00
2018-03-23T03:49:26.198Z,0.00
2018-03-23T03:50:26.266Z,0.00
2018-03-23T03:51:26.282Z,0.00
2018-03-23T03:52:26.326Z,0.00
2018-03-23T03:53:26.365Z,0.00
2018-03-23T03:54:26.410Z,0.00
2018-03-23T03:55:26.486Z,0.00
2018-03-23T03:56:26.489Z,0.00
2018-03-23T03:57:26.534Z,0.00
2018-03-23T03:58:26.571Z,0.00
2018-03-23T03:59:26.613Z,0.00
2018-03-23T04:00:26.685Z,0.00
2018-03-23T04:01:26.699Z,0.00
2018-03-23T04:02:26.742Z,0.00
2018-03-23T04:03:26.785Z,0.00
2018-03-23T04:04:26.821Z,0.00
2018-03-23T04:05:26.888Z,0.00
2018-03-23T04:06:26.905Z,0.00
2018-03-23T04:07:26.971Z,0.00
2018-03-23T04:08:26.987Z,0.00
2018-03-23T04:09:27.032Z,0.00
2018-03-23T04:10:27.069Z,0.00
2018-03-23T04:11:27.112Z,0.00
2018-03-23T04:12:27.177Z,0.00
2018-03-23T04:13:27.194Z,0.00
2018-03-23T04:14:27.235Z,0.00
2018-03-23T04:15:27.277Z,0.00
2018-03-23T04:16:27.318Z,0.00
2018-03-23T04:17:27.385Z,0.00
2018-03-23T04:18:27.401Z,0.00
2018-03-23T04:19:27.446Z,0.00
2018-03-23T04:20:27.497Z,0.00
2018-03-23T04:21:27.528Z,0.00
2018-03-23T04:22:27.594Z,0.00
2018-03-23T04:23:27.618Z,0.00
2018-03-23T04:24:27.655Z,0.00
2018-03-23T04:25:27.695Z,0.00
2018-03-23T04:26:27.734Z,0.00
2018-03-23T04:27:27.800Z,0.00
2018-03-23T04:28:27.818Z,0.00
2018-03-23T04:29:27.884Z,0.00
2018-03-23T04:30:27.903Z,0.00
2018-03-23T04:31:27.944Z,0.00
2018-03-23T04:32:27.994Z,0.00
2018-03-23T04:33:28.033Z,0.00
2018-03-23T04:34:28.107Z,0.00
2018-03-23T04:35:28.112Z,0.00
2018-03-23T04:36:28.153Z,0.00
2018-03-23T04:37:28.196Z,0.00
2018-03-23T04:38:28.236Z,0.00
2018-03-23T04:39:28.299Z,0.00
2018-03-23T04:40:28.318Z,0.00
2018-03-23T04:41:28.392Z,0.00
2018-03-23T04:42:28.403Z,0.00
2018-03-23T04:43:28.505Z,0.00
2018-03-23T04:44:28.488Z,0.00
2018-03-23T04:45:28.530Z,0.00
2018-03-23T04:46:28.593Z,0.00
2018-03-23T04:47:28.612Z,0.00
2018-03-23T04:48:28.653Z,0.00
2018-03-23T04:49:28.695Z,0.00
2018-03-23T04:50:28.769Z,0.00
2018-03-23T04:51:28.781Z,0.00
2018-03-23T04:52:28.821Z,0.00
2018-03-23T04:53:28.865Z,0.00
2018-03-23T04:54:28.904Z,0.00
2018-03-23T04:55:28.970Z,0.00
2018-03-23T04:56:28.987Z,0.00
2018-03-23T04:57:29.055Z,4.00
2018-03-23T04:58:29.071Z,4.00
2018-03-23T04:59:29.112Z,4.00
2018-03-23T05:00:29.156Z,4.00
2018-03-23T05:01:29.228Z,4.00
2018-03-23T05:02:29.238Z,8.00
2018-03-23T05:03:29.304Z,8.00
2018-03-23T05:04:29.322Z,8.00
2018-03-23T05:05:29.366Z,8.00
2018-03-23T05:06:29.434Z,12.00
2018-03-23T05:07:29.451Z,12.00
2018-03-23T05:08:29.489Z,12.00
2018-03-23T05:09:29.558Z,16.00
2018-03-23T05:10:29.572Z,20.00
2018-03-23T05:11:29.616Z,24.00
2018-03-23T05:12:29.677Z,24.00
2018-03-23T05:13:29.701Z,24.00
2018-03-23T05:14:29.770Z,28.00
2018-03-23T05:15:29.792Z,32.00
2018-03-23T05:16:29.827Z,32.00
2018-03-23T05:17:29.870Z,40.00
2018-03-23T05:18:29.956Z,44.00
2018-03-23T05:19:29.953Z,52.00
2018-03-23T05:20:29.998Z,60.00
2018-03-23T05:21:30.852Z,68.00
2018-03-23T05:22:30.078Z,76.00
2018-03-23T05:23:30.150Z,84.00
2018-03-23T05:24:30.163Z,96.00
2018-03-23T05:25:30.204Z,104.00
2018-03-23T05:26:30.248Z,112.00
2018-03-23T05:27:30.289Z,128.00
2018-03-23T05:28:30.352Z,144.00
2018-03-23T05:29:30.370Z,152.00
2018-03-23T05:30:30.442Z,144.00
2018-03-23T05:31:30.456Z,144.00
2018-03-23T05:32:30.501Z,160.00
2018-03-23T05:33:30.540Z,172.00
2018-03-23T05:34:30.582Z,188.00
2018-03-23T05:35:30.667Z,220.00
2018-03-23T05:36:30.664Z,228.00
2018-03-23T05:37:30.716Z,216.00
2018-03-23T05:38:30.748Z,212.00
2018-03-23T05:39:30.813Z,244.00
2018-03-23T05:40:30.873Z,288.00
2018-03-23T05:41:30.878Z,332.00
2018-03-23T05:42:30.918Z,376.00
2018-03-23T05:43:30.958Z,408.00
2018-03-23T05:44:31.000Z,436.00
2018-03-23T05:45:31.073Z,456.00
2018-03-23T05:46:31.087Z,528.00
2018-03-23T05:47:31.129Z,520.00
2018-03-23T05:48:31.168Z,516.00
2018-03-23T05:49:31.211Z,540.00
2018-03-23T05:50:31.289Z,596.00
2018-03-23T05:51:31.296Z,620.00
2018-03-23T05:52:31.337Z,628.00
2018-03-23T05:53:31.379Z,688.00
2018-03-23T05:54:31.417Z,728.00
2018-03-23T05:55:31.484Z,764.00
2018-03-23T05:56:31.528Z,816.00
2018-03-23T05:57:31.544Z,840.00
2018-03-23T05:58:31.586Z,812.00
2018-03-23T05:59:31.628Z,760.00
2018-03-23T06:00:31.701Z,740.00
2018-03-23T06:01:31.718Z,720.00
2018-03-23T06:02:31.754Z,720.00
2018-03-23T06:03:31.846Z,712.00
2018-03-23T06:04:31.844Z,704.00
2018-03-23T06:05:31.902Z,684.00
2018-03-23T06:06:32.064Z,644.00
2018-03-23T06:07:31.969Z,580.00
2018-03-23T06:08:32.008Z,540.00
2018-03-23T06:09:32.048Z,588.00
2018-03-23T06:10:32.093Z,640.00
2018-03-23T06:11:32.155Z,628.00
2018-03-23T06:12:32.174Z,612.00
2018-03-23T06:13:32.241Z,620.00
2018-03-23T06:14:32.258Z,568.00
2018-03-23T06:15:32.302Z,572.00
2018-03-23T06:16:32.347Z,636.00
2018-03-23T06:17:32.382Z,704.00
2018-03-23T06:18:32.511Z,724.00
2018-03-23T06:19:32.468Z,700.00
2018-03-23T06:20:32.509Z,720.00
2018-03-23T06:21:32.555Z,816.00
2018-03-23T06:22:32.593Z,896.00
2018-03-23T06:23:32.660Z,948.00
2018-03-23T06:24:32.675Z,940.00
2018-03-23T06:25:32.722Z,892.00
2018-03-23T06:26:32.759Z,880.00
2018-03-23T06:27:32.799Z,952.00
2018-03-23T06:28:32.875Z,1012.00
2018-03-23T06:29:33.649Z,940.00
2018-03-23T06:30:32.926Z,912.00
2018-03-23T06:31:32.968Z,924.00
2018-03-23T06:32:33.008Z,980.00
2018-03-23T06:33:33.083Z,984.00
2018-03-23T06:34:33.090Z,1000.00
2018-03-23T06:35:33.134Z,1024.00
2018-03-23T06:36:33.180Z,1072.00
2018-03-23T06:37:33.218Z,1076.00
2018-03-23T06:38:33.323Z,1036.00
2018-03-23T06:39:33.301Z,1028.00
2018-03-23T06:40:33.340Z,1048.00
2018-03-23T06:41:33.390Z,1108.00
2018-03-23T06:42:33.423Z,1268.00
2018-03-23T06:43:35.347Z,1396.00
2018-03-23T06:44:33.505Z,1496.00
2018-03-23T06:45:33.547Z,1732.00
2018-03-23T06:46:33.588Z,1920.00
2018-03-23T06:47:33.630Z,2128.00
2018-03-23T06:48:33.753Z,2072.00
2018-03-23T06:49:33.712Z,2488.00
2018-03-23T06:50:33.753Z,2752.00
2018-03-23T06:51:33.795Z,2492.00
2018-03-23T06:52:33.837Z,2316.00
2018-03-23T06:53:33.916Z,2468.00
2018-03-23T06:54:33.922Z,2884.00
2018-03-23T06:55:33.960Z,3044.00
2018-03-23T06:56:34.001Z,2964.00
2018-03-23T06:57:34.044Z,2780.00
2018-03-23T06:58:34.115Z,2676.00
2018-03-23T06:59:34.128Z,2764.00
2018-03-23T07:00:34.168Z,2736.00
2018-03-23T07:01:34.212Z,2944.00
2018-03-23T07:02:34.251Z,3292.00
2018-03-23T07:03:34.323Z,3712.00
2018-03-23T07:04:34.334Z,4320.00
2018-03-23T07:05:34.375Z,4448.00
2018-03-23T07:06:34.426Z,4548.00
2018-03-23T07:07:34.462Z,5168.00
2018-03-23T07:08:34.679Z,5640.00
2018-03-23T07:09:34.541Z,5552.00
2018-03-23T07:10:34.584Z,5612.00
2018-03-23T07:11:34.642Z,5868.00
2018-03-23T07:12:34.666Z,5884.00
2018-03-23T07:13:34.741Z,5412.00
2018-03-23T07:14:34.751Z,5560.00
2018-03-23T07:15:34.831Z,5824.00
2018-03-23T07:16:35.346Z,5936.00
2018-03-23T07:17:34.874Z,6444.00
2018-03-23T07:18:34.939Z,7120.00
2018-03-23T07:19:34.958Z,7384.00
2018-03-23T07:20:35.021Z,7232.00
2018-03-23T07:21:35.043Z,6780.00
2018-03-23T07:22:35.084Z,6296.00
2018-03-23T07:23:35.124Z,6292.00
2018-03-23T07:24:35.171Z,6644.00
2018-03-23T07:25:35.251Z,7108.00
2018-03-23T07:26:35.252Z,7412.00
2018-03-23T07:27:35.288Z,7368.00
2018-03-23T07:28:35.331Z,7628.00
2018-03-23T07:29:35.374Z,7860.00
2018-03-23T07:30:35.456Z,7508.00
2018-03-23T07:31:35.456Z,7160.00
2018-03-23T07:32:35.497Z,7112.00
2018-03-23T07:33:35.540Z,7052.00
2018-03-23T07:34:35.581Z,6944.00
2018-03-23T07:35:35.654Z,7024.00
2018-03-23T07:36:35.665Z,7488.00
2018-03-23T07:37:35.709Z,8000.00
2018-03-23T07:38:35.749Z,8356.00
2018-03-23T07:39:35.794Z,8568.00
2018-03-23T07:40:35.864Z,8596.00
2018-03-23T07:41:35.877Z,8384.00
2018-03-23T07:42:35.917Z,8072.00
2018-03-23T07:43:35.957Z,7752.00
2018-03-23T07:44:35.998Z,7020.00
2018-03-23T07:45:36.080Z,6344.00
2018-03-23T07:46:36.083Z,6108.00
2018-03-23T07:47:36.125Z,5936.00
2018-03-23T07:48:36.165Z,5632.00
2018-03-23T07:49:36.207Z,5292.00
2018-03-23T07:50:36.281Z,4904.00
2018-03-23T07:51:36.291Z,4660.00
2018-03-23T07:52:36.333Z,4656.00
2018-03-23T07:53:36.373Z,4736.00
2018-03-23T07:54:36.417Z,4872.00
2018-03-23T07:55:36.488Z,5152.00
2018-03-23T07:56:36.500Z,5544.00
2018-03-23T07:57:36.544Z,5864.00
2018-03-23T07:58:36.582Z,6172.00
2018-03-23T07:59:36.623Z,6680.00
2018-03-23T08:00:36.690Z,7436.00
2018-03-23T08:01:36.716Z,8468.00
2018-03-23T08:02:37.639Z,9192.00
2018-03-23T08:03:36.790Z,9548.00
2018-03-23T08:04:36.833Z,10376.00
2018-03-23T08:05:36.873Z,12144.00
2018-03-23T08:06:36.917Z,12752.00
2018-03-23T08:07:36.981Z,12144.00
2018-03-23T08:08:37.002Z,12556.00
2018-03-23T08:09:37.041Z,14076.00
2018-03-23T08:10:37.086Z,14656.00
2018-03-23T08:11:37.124Z,15308.00
2018-03-23T08:12:37.198Z,15976.00
2018-03-23T08:13:37.636Z,15540.00
2018-03-23T08:14:37.300Z,15588.00
2018-03-23T08:15:37.291Z,16376.00
2018-03-23T08:16:37.344Z,16572.00
2018-03-23T08:17:37.380Z,16628.00
2018-03-23T08:18:37.418Z,16352.00
2018-03-23T08:19:37.488Z,16204.00
2018-03-23T08:20:37.502Z,15936.00
2018-03-23T08:21:37.546Z,15240.00
2018-03-23T08:22:37.586Z,14036.00
2018-03-23T08:23:37.626Z,12088.00
2018-03-23T08:24:37.698Z,10388.00
2018-03-23T08:25:37.711Z,9408.00
2018-03-23T08:26:37.752Z,9408.00
2018-03-23T08:27:37.798Z,10404.00
2018-03-23T08:28:37.836Z,12000.00
2018-03-23T08:29:37.911Z,13432.00
2018-03-23T08:30:37.921Z,14992.00
2018-03-23T08:31:37.965Z,16600.00
2018-03-23T08:32:38.006Z,17504.00
2018-03-23T08:33:38.051Z,17920.00
2018-03-23T08:34:38.117Z,18848.00
2018-03-23T08:35:38.131Z,19744.00
2018-03-23T08:36:38.174Z,20384.00
2018-03-23T08:37:38.218Z,22272.00
2018-03-23T08:38:38.258Z,23168.00
2018-03-23T08:39:38.327Z,23808.00
2018-03-23T08:40:38.370Z,27072.00
2018-03-23T08:41:38.387Z,27328.00
2018-03-23T08:42:38.427Z,23456.00
2018-03-23T08:43:38.469Z,22432.00
2018-03-23T08:44:38.515Z,21856.00
2018-03-23T08:45:38.592Z,21056.00
2018-03-23T08:46:38.601Z,20960.00
2018-03-23T08:47:38.645Z,20832.00
2018-03-23T08:48:38.684Z,20768.00
2018-03-23T08:49:38.730Z,20960.00
2018-03-23T08:50:38.798Z,20896.00
2018-03-23T08:51:38.814Z,19680.00
2018-03-23T08:52:38.858Z,18464.00
2018-03-23T08:53:38.897Z,17140.00
2018-03-23T08:54:38.946Z,16420.00
2018-03-23T08:55:39.022Z,16420.00
2018-03-23T08:56:39.052Z,17276.00
2018-03-23T08:57:39.071Z,18464.00
2018-03-23T08:58:39.116Z,18944.00
2018-03-23T08:59:39.154Z,20320.00
2018-03-23T09:00:39.197Z,22816.00
2018-03-23T09:01:39.264Z,25984.00
2018-03-23T09:02:39.283Z,26720.00
2018-03-23T09:03:39.326Z,25184.00
2018-03-23T09:04:39.378Z,25088.00
2018-03-23T09:05:39.414Z,26272.00
2018-03-23T09:06:39.479Z,28992.00
2018-03-23T09:07:39.500Z,31712.00
2018-03-23T09:08:39.550Z,33024.00
2018-03-23T09:09:39.597Z,33984.00
2018-03-23T09:10:39.627Z,36800.00
2018-03-23T09:11:39.704Z,38272.00
2018-03-23T09:12:39.713Z,41856.00
2018-03-23T09:13:39.757Z,48416.00
2018-03-23T09:14:39.802Z,55872.00
2018-03-23T09:15:39.849Z,53664.00
2018-03-23T09:16:39.931Z,49184.00
2018-03-23T09:17:39.931Z,48352.00
2018-03-23T09:18:39.998Z,48000.00
2018-03-23T09:19:40.017Z,51456.00
2018-03-23T09:20:40.066Z,69920.00
2018-03-23T09:21:40.107Z,76224.00
2018-03-23T09:22:41.137Z,66976.00
2018-03-23T09:23:40.216Z,61440.00
2018-03-23T09:24:40.241Z,55040.00
2018-03-23T09:25:40.283Z,52352.00
2018-03-23T09:26:40.841Z,47872.00
2018-03-23T09:27:40.403Z,63104.00
2018-03-23T09:28:40.416Z,66080.00
2018-03-23T09:29:40.465Z,62496.00
2018-03-23T09:30:40.509Z,91808.00
2018-03-23T09:31:40.560Z,80064.00
2018-03-23T09:32:40.624Z,62784.00
2018-03-23T09:33:40.645Z,110560.00
2018-03-23T09:34:40.715Z,110976.00
2018-03-23T09:35:40.749Z,91392.00
2018-03-23T09:36:40.782Z,80160.00
2018-03-23T09:37:40.827Z,50848.00
2018-03-23T09:38:40.896Z,63552.00
2018-03-23T09:39:40.943Z,68608.00
2018-03-23T09:40:40.966Z,79712.00
2018-03-23T09:41:41.012Z,78080.00
2018-03-23T09:42:41.060Z,84768.00
2018-03-23T09:43:41.126Z,89472.00
2018-03-23T09:44:41.150Z,104480.00
2018-03-23T09:45:41.222Z,61920.00
2018-03-23T09:46:41.244Z,103040.00
2018-03-23T09:47:41.295Z,91552.00
2018-03-23T09:48:41.367Z,122624.00
2018-03-23T09:49:41.390Z,96896.00
2018-03-23T09:50:41.456Z,67008.00
2018-03-23T09:51:41.481Z,96416.00
2018-03-23T09:52:41.531Z,53408.00
2018-03-23T09:53:41.577Z,81280.00
2018-03-23T09:54:41.657Z,127264.00
2018-03-23T09:55:41.696Z,111168.00
2018-03-23T09:56:42.641Z,65376.00
2018-03-23T09:57:41.766Z,78048.00
2018-03-23T09:58:42.645Z,119072.00
2018-03-23T09:59:41.863Z,103328.00
2018-03-23T10:00:41.939Z,85184.00
2018-03-23T10:01:41.959Z,100096.00
2018-03-23T10:02:42.006Z,103136.00
2018-03-23T10:03:42.094Z,104416.00
2018-03-23T10:04:42.102Z,40512.00
2018-03-23T10:05:42.179Z,52480.00
2018-03-23T10:06:42.201Z,84160.00
2018-03-23T10:07:42.249Z,90784.00
2018-03-23T10:08:42.324Z,89120.00
2018-03-23T10:09:42.344Z,111296.00
2018-03-23T10:10:42.389Z,107744.00
2018-03-23T10:11:42.469Z,100352.00
2018-03-23T10:12:42.484Z,97280.00
2018-03-23T10:13:42.534Z,94432.00
2018-03-23T10:14:42.586Z,93568.00
2018-03-23T10:15:42.630Z,50592.00
2018-03-23T10:16:42.703Z,83104.00
2018-03-23T10:17:42.728Z,77568.00
2018-03-23T10:18:42.776Z,87040.00
2018-03-23T10:19:42.848Z,82976.00
2018-03-23T10:20:42.909Z,111168.00
2018-03-23T10:21:42.957Z,108032.00
2018-03-23T10:22:42.967Z,123744.00
2018-03-23T10:23:43.019Z,111552.00
2018-03-23T10:24:43.093Z,101472.00
2018-03-23T10:25:43.118Z,87456.00
2018-03-23T10:26:43.165Z,92448.00
2018-03-23T10:27:43.213Z,90432.00
2018-03-23T10:28:43.261Z,106624.00
2018-03-23T10:29:43.339Z,102944.00
2018-03-23T10:30:43.357Z,87424.00
2018-03-23T10:31:43.406Z,75488.00
2018-03-23T10:32:43.457Z,80032.00
2018-03-23T10:33:43.502Z,90848.00
2018-03-23T10:34:43.582Z,96512.00
2018-03-23T10:35:43.603Z,114496.00
2018-03-23T10:36:43.649Z,115008.00
2018-03-23T10:37:43.702Z,101216.00
2018-03-23T10:38:43.765Z,86688.00
2018-03-23T10:39:43.837Z,84768.00
2018-03-23T10:40:43.850Z,93952.00
2018-03-23T10:41:43.896Z,105024.00
2018-03-23T10:42:43.945Z,114752.00
2018-03-23T10:43:43.997Z,123776.00
2018-03-23T10:44:44.073Z,131360.00
2018-03-23T10:45:44.101Z,137696.00
2018-03-23T10:46:44.224Z,133280.00
2018-03-23T10:47:44.193Z,129600.00
2018-03-23T10:48:44.244Z,112544.00
2018-03-23T10:49:44.297Z,97216.00
2018-03-23T10:50:44.374Z,92128.00
2018-03-23T10:51:44.390Z,91744.00
2018-03-23T10:52:44.493Z,101376.00
2018-03-23T10:53:44.492Z,103520.00
2018-03-23T10:54:44.538Z,99808.00
2018-03-23T10:55:44.613Z,94016.00
2018-03-23T10:56:44.636Z,89568.00
2018-03-23T10:57:44.713Z,86336.00
2018-03-23T10:58:44.735Z,90688.00
2018-03-23T10:59:44.784Z,95488.00
2018-03-23T11:00:44.836Z,102944.00
2018-03-23T11:01:44.932Z,108928.00
2018-03-23T11:02:44.967Z,109088.00
2018-03-23T11:03:44.980Z,108544.00
2018-03-23T11:04:45.030Z,107808.00
2018-03-23T11:05:45.080Z,108736.00
2018-03-23T11:06:45.129Z,111296.00
2018-03-23T11:07:45.207Z,112192.00
2018-03-23T11:08:45.227Z,106816.00
2018-03-23T11:09:45.280Z,103040.00
2018-03-23T11:10:45.329Z,96768.00
2018-03-23T11:11:45.377Z,92672.00
2018-03-23T11:12:45.465Z,92800.00
2018-03-23T11:13:45.484Z,97376.00
2018-03-23T11:14:45.529Z,110112.00
2018-03-23T11:15:45.582Z,122272.00
2018-03-23T11:16:45.630Z,128672.00
2018-03-23T11:17:45.717Z,128736.00
2018-03-23T11:18:45.736Z,125152.00
2018-03-23T11:19:45.786Z,119776.00
2018-03-23T11:20:45.831Z,113696.00
2018-03-23T11:21:45.884Z,114624.00
2018-03-23T11:22:45.967Z,115552.00
2018-03-23T11:23:45.983Z,114176.00
2018-03-23T11:24:46.033Z,112352.00
2018-03-23T11:25:46.085Z,111968.00
2018-03-23T11:26:46.136Z,117344.00
2018-03-23T11:27:46.209Z,127392.00
2018-03-23T11:28:46.239Z,133824.00
2018-03-23T11:29:46.287Z,132864.00
2018-03-23T11:30:46.338Z,125088.00
2018-03-23T11:31:46.418Z,111712.00
2018-03-23T11:32:46.440Z,97088.00
2018-03-23T11:33:46.516Z,90560.00
2018-03-23T11:34:46.538Z,94880.00
2018-03-23T11:35:46.592Z,107072.00
2018-03-23T11:36:46.640Z,112352.00
2018-03-23T11:37:46.717Z,115840.00
2018-03-23T11:38:46.766Z,108032.00
2018-03-23T11:39:46.791Z,100352.00
2018-03-23T11:40:46.849Z,97440.00
2018-03-23T11:41:46.894Z,98304.00
2018-03-23T11:42:46.974Z,104352.00
2018-03-23T11:43:46.993Z,111872.00
2018-03-23T11:44:47.109Z,111968.00
2018-03-23T11:45:47.096Z,117216.00
2018-03-23T11:46:47.145Z,95712.00
2018-03-23T11:47:47.218Z,79008.00
2018-03-23T11:48:47.246Z,75392.00
2018-03-23T11:49:47.298Z,71680.00
2018-03-23T11:50:47.412Z,82336.00
2018-03-23T11:51:47.397Z,74240.00
2018-03-23T11:52:47.450Z,68864.00
2018-03-23T11:53:47.499Z,57248.00
2018-03-23T11:54:47.549Z,50336.00
2018-03-23T11:55:47.636Z,55168.00
2018-03-23T11:56:47.653Z,56800.00
2018-03-23T11:57:47.702Z,68480.00
2018-03-23T11:58:47.756Z,67328.00
2018-03-23T11:59:47.806Z,70144.00
2018-03-23T12:00:47.876Z,64768.00
2018-03-23T12:01:47.900Z,60352.00
2018-03-23T12:02:47.953Z,68352.00
2018-03-23T12:03:48.007Z,53440.00
2018-03-23T12:04:48.049Z,51392.00
2018-03-23T12:05:48.123Z,55840.00
2018-03-23T12:06:48.174Z,60032.00
2018-03-23T12:07:48.198Z,57856.00
2018-03-23T12:08:48.248Z,65600.00
2018-03-23T12:09:48.297Z,102720.00
2018-03-23T12:10:48.353Z,103936.00
2018-03-23T12:11:48.424Z,108160.00
2018-03-23T12:12:48.444Z,112928.00
2018-03-23T12:13:48.499Z,108096.00
2018-03-23T12:14:48.544Z,72288.00
2018-03-23T12:15:48.593Z,68192.00
2018-03-23T12:16:48.670Z,62944.00
2018-03-23T12:17:48.690Z,57376.00
2018-03-23T12:18:48.740Z,55968.00
2018-03-23T12:19:48.788Z,54048.00
2018-03-23T12:20:48.837Z,55136.00
2018-03-23T12:21:48.926Z,60224.00
2018-03-23T12:22:48.936Z,62496.00
2018-03-23T12:23:48.983Z,72096.00
2018-03-23T12:24:49.035Z,104384.00
2018-03-23T12:25:49.087Z,103072.00
2018-03-23T12:26:49.158Z,126080.00